< < Back
Terminal Aerodrome Forecast


Current Version              Previous Versions:   1  2  3  4  5  6  7  8  9  

Terminal Aerodrome Forecast

846
FTUS42 KJAX 130857 CCA
TAFGNV
TAF COR
KGNV 130857Z 1309/1406 26005KT P6SM SCT004
     FM131000 31007KT P6SM SKC
     FM131500 35011G20KT P6SM SKC
     FM140000 35004KT P6SM SKC=

Latest METAR

540
SAUS70 KWBC 141000 RRF
MTRGNV
METAR KGNV 140953Z AUTO 00000KT 10SM CLR 03/M04 A3028 RMK AO2 SLP254
T00281039


USA.gov is the U.S. government's official web portal to all federal, state and local government web resources and services.